sensor_id;sensor_type;location;lat;lon;timestamp;temperature;humidity
1994;DHT22;998;49.906;10.908;2022-09-16T00:00:58;15.60;99.90
1994;DHT22;998;49.906;10.908;2022-09-16T00:03:25;15.60;99.90
1994;DHT22;998;49.906;10.908;2022-09-16T00:05:53;15.60;99.90
1994;DHT22;998;49.906;10.908;2022-09-16T00:08:21;15.60;99.90
1994;DHT22;998;49.906;10.908;2022-09-16T00:10:48;15.50;99.90
1994;DHT22;998;49.906;10.908;2022-09-16T00:13:15;15.60;99.90
1994;DHT22;998;49.906;10.908;2022-09-16T00:15:43;15.50;99.90
1994;DHT22;998;49.906;10.908;2022-09-16T00:18:10;15.60;99.90
1994;DHT22;998;49.906;10.908;2022-09-16T00:20:42;15.70;99.90
1994;DHT22;998;49.906;10.908;2022-09-16T00:23:10;15.70;99.90
1994;DHT22;998;49.906;10.908;2022-09-16T00:25:37;15.70;99.90
1994;DHT22;998;49.906;10.908;2022-09-16T00:28:04;15.70;99.90
1994;DHT22;998;49.906;10.908;2022-09-16T00:30:30;15.60;99.90
1994;DHT22;998;49.906;10.908;2022-09-16T00:32:57;15.60;99.90
1994;DHT22;998;49.906;10.908;2022-09-16T00:35:24;15.60;99.90
1994;DHT22;998;49.906;10.908;2022-09-16T00:37:51;15.40;99.90
1994;DHT22;998;49.906;10.908;2022-09-16T00:40:19;15.30;99.90
1994;DHT22;998;49.906;10.908;2022-09-16T00:42:47;15.50;99.90
1994;DHT22;998;49.906;10.908;2022-09-16T00:45:16;15.40;99.90
1994;DHT22;998;49.906;10.908;2022-09-16T00:47:46;15.50;99.90
1994;DHT22;998;49.906;10.908;2022-09-16T00:50:16;15.40;99.90
1994;DHT22;998;49.906;10.908;2022-09-16T00:52:45;15.40;99.90
1994;DHT22;998;49.906;10.908;2022-09-16T00:55:16;15.40;99.90
1994;DHT22;998;49.906;10.908;2022-09-16T00:57:46;15.40;99.90
1994;DHT22;998;49.906;10.908;2022-09-16T01:00:13;15.30;99.90
1994;DHT22;998;49.906;10.908;2022-09-16T01:02:41;15.20;99.90
1994;DHT22;998;49.906;10.908;2022-09-16T01:05:12;15.40;99.90
1994;DHT22;998;49.906;10.908;2022-09-16T01:07:42;15.30;99.90
1994;DHT22;998;49.906;10.908;2022-09-16T01:10:10;15.30;99.90
1994;DHT22;998;49.906;10.908;2022-09-16T01:12:38;15.30;99.90
1994;DHT22;998;49.906;10.908;2022-09-16T01:15:07;15.20;99.90
1994;DHT22;998;49.906;10.908;2022-09-16T01:18:02;15.30;99.90
1994;DHT22;998;49.906;10.908;2022-09-16T01:24:02;15.20;99.90
1994;DHT22;998;49.906;10.908;2022-09-16T01:26:59;15.20;99.90
1994;DHT22;998;49.906;10.908;2022-09-16T01:32:39;15.10;99.90
1994;DHT22;998;49.906;10.908;2022-09-16T01:35:17;15.10;99.90
1994;DHT22;998;49.906;10.908;2022-09-16T01:37:54;15.10;99.90
1994;DHT22;998;49.906;10.908;2022-09-16T01:40:27;15.10;99.90
1994;DHT22;998;49.906;10.908;2022-09-16T01:43:02;15.00;99.90
1994;DHT22;998;49.906;10.908;2022-09-16T01:45:36;15.00;99.90
1994;DHT22;998;49.906;10.908;2022-09-16T01:48:11;15.10;99.90
1994;DHT22;998;49.906;10.908;2022-09-16T01:50:41;15.20;99.90
1994;DHT22;998;49.906;10.908;2022-09-16T01:53:13;15.20;99.90
1994;DHT22;998;49.906;10.908;2022-09-16T01:55:47;15.30;99.90
1994;DHT22;998;49.906;10.908;2022-09-16T01:58:17;15.30;99.90
1994;DHT22;998;49.906;10.908;2022-09-16T02:00:47;15.30;99.90
1994;DHT22;998;49.906;10.908;2022-09-16T02:03:20;15.30;99.90
1994;DHT22;998;49.906;10.908;2022-09-16T02:05:52;15.30;99.90
1994;DHT22;998;49.906;10.908;2022-09-16T02:08:23;15.30;99.90
1994;DHT22;998;49.906;10.908;2022-09-16T02:10:55;15.20;99.90
1994;DHT22;998;49.906;10.908;2022-09-16T02:13:27;15.30;99.90
1994;DHT22;998;49.906;10.908;2022-09-16T02:15:58;15.10;99.90
1994;DHT22;998;49.906;10.908;2022-09-16T02:18:30;15.00;99.90
1994;DHT22;998;49.906;10.908;2022-09-16T02:21:00;15.00;99.90
1994;DHT22;998;49.906;10.908;2022-09-16T02:23:34;15.00;99.90
1994;DHT22;998;49.906;10.908;2022-09-16T02:26:05;15.10;99.90
1994;DHT22;998;49.906;10.908;2022-09-16T02:28:36;15.00;99.90
1994;DHT22;998;49.906;10.908;2022-09-16T02:31:07;14.90;99.90
1994;DHT22;998;49.906;10.908;2022-09-16T02:33:40;14.90;99.90
1994;DHT22;998;49.906;10.908;2022-09-16T02:36:11;14.90;99.90
1994;DHT22;998;49.906;10.908;2022-09-16T02:38:40;14.90;99.90
1994;DHT22;998;49.906;10.908;2022-09-16T02:41:08;14.90;99.90
1994;DHT22;998;49.906;10.908;2022-09-16T02:43:39;14.90;99.90
1994;DHT22;998;49.906;10.908;2022-09-16T02:46:10;14.90;99.90
1994;DHT22;998;49.906;10.908;2022-09-16T02:48:52;14.90;99.90
1994;DHT22;998;49.906;10.908;2022-09-16T02:51:28;14.80;99.90
1994;DHT22;998;49.906;10.908;2022-09-16T02:54:00;14.90;99.90
1994;DHT22;998;49.906;10.908;2022-09-16T02:56:31;14.80;99.90
1994;DHT22;998;49.906;10.908;2022-09-16T02:58:59;14.80;99.90
1994;DHT22;998;49.906;10.908;2022-09-16T03:01:28;14.80;99.90
1994;DHT22;998;49.906;10.908;2022-09-16T03:03:57;14.70;99.90
1994;DHT22;998;49.906;10.908;2022-09-16T03:06:25;14.70;99.90
1994;DHT22;998;49.906;10.908;2022-09-16T03:08:56;14.80;99.90
1994;DHT22;998;49.906;10.908;2022-09-16T03:11:35;14.80;99.90
1994;DHT22;998;49.906;10.908;2022-09-16T03:14:19;14.70;99.90
1994;DHT22;998;49.906;10.908;2022-09-16T03:16:57;14.70;99.90
1994;DHT22;998;49.906;10.908;2022-09-16T03:19:34;14.70;99.90
1994;DHT22;998;49.906;10.908;2022-09-16T03:22:08;14.70;99.90
1994;DHT22;998;49.906;10.908;2022-09-16T03:24:44;14.70;99.90
1994;DHT22;998;49.906;10.908;2022-09-16T03:27:18;14.60;99.90
1994;DHT22;998;49.906;10.908;2022-09-16T03:29:48;14.60;99.90
1994;DHT22;998;49.906;10.908;2022-09-16T03:32:18;14.70;99.90
1994;DHT22;998;49.906;10.908;2022-09-16T03:34:54;14.70;99.90
1994;DHT22;998;49.906;10.908;2022-09-16T03:37:26;14.50;99.90
1994;DHT22;998;49.906;10.908;2022-09-16T03:39:57;14.50;99.90
1994;DHT22;998;49.906;10.908;2022-09-16T03:42:25;14.60;99.90
1994;DHT22;998;49.906;10.908;2022-09-16T03:44:52;14.50;99.90
1994;DHT22;998;49.906;10.908;2022-09-16T03:47:19;14.60;99.90
1994;DHT22;998;49.906;10.908;2022-09-16T03:49:46;14.50;99.90
1994;DHT22;998;49.906;10.908;2022-09-16T03:52:14;14.50;99.90
1994;DHT22;998;49.906;10.908;2022-09-16T03:54:43;14.60;99.90
1994;DHT22;998;49.906;10.908;2022-09-16T03:57:09;14.60;99.90
1994;DHT22;998;49.906;10.908;2022-09-16T03:59:36;14.50;99.90
1994;DHT22;998;49.906;10.908;2022-09-16T04:02:03;14.60;99.90
1994;DHT22;998;49.906;10.908;2022-09-16T04:04:30;14.50;99.90
1994;DHT22;998;49.906;10.908;2022-09-16T04:06:57;14.50;99.90
1994;DHT22;998;49.906;10.908;2022-09-16T04:09:25;14.50;99.90
1994;DHT22;998;49.906;10.908;2022-09-16T04:11:52;14.40;99.90
1994;DHT22;998;49.906;10.908;2022-09-16T04:14:18;14.50;99.90
1994;DHT22;998;49.906;10.908;2022-09-16T04:16:45;14.50;99.90
1994;DHT22;998;49.906;10.908;2022-09-16T04:19:13;14.50;99.90
1994;DHT22;998;49.906;10.908;2022-09-16T04:21:40;14.40;99.90
1994;DHT22;998;49.906;10.908;2022-09-16T04:24:08;14.40;99.90
1994;DHT22;998;49.906;10.908;2022-09-16T04:26:36;14.40;99.90
1994;DHT22;998;49.906;10.908;2022-09-16T04:29:03;14.40;99.90
1994;DHT22;998;49.906;10.908;2022-09-16T04:31:30;14.50;99.90
1994;DHT22;998;49.906;10.908;2022-09-16T04:33:57;14.40;99.90
1994;DHT22;998;49.906;10.908;2022-09-16T04:36:23;14.40;99.90
1994;DHT22;998;49.906;10.908;2022-09-16T04:38:50;14.40;99.90
1994;DHT22;998;49.906;10.908;2022-09-16T04:48:53;14.30;99.90
1994;DHT22;998;49.906;10.908;2022-09-16T04:55:30;14.20;99.90
1994;DHT22;998;49.906;10.908;2022-09-16T04:58:01;14.00;99.90
1994;DHT22;998;49.906;10.908;2022-09-16T05:00:37;14.20;99.90
1994;DHT22;998;49.906;10.908;2022-09-16T05:06:57;14.20;99.90
1994;DHT22;998;49.906;10.908;2022-09-16T05:09:29;14.10;99.90
1994;DHT22;998;49.906;10.908;2022-09-16T05:12:03;14.20;99.90
1994;DHT22;998;49.906;10.908;2022-09-16T05:14:40;14.20;99.90
1994;DHT22;998;49.906;10.908;2022-09-16T05:18:12;14.20;99.90
1994;DHT22;998;49.906;10.908;2022-09-16T05:24:47;14.20;99.90
1994;DHT22;998;49.906;10.908;2022-09-16T05:27:14;14.10;99.90
1994;DHT22;998;49.906;10.908;2022-09-16T05:29:41;14.10;99.90
1994;DHT22;998;49.906;10.908;2022-09-16T05:32:09;14.20;99.90
1994;DHT22;998;49.906;10.908;2022-09-16T05:34:41;14.10;99.90
1994;DHT22;998;49.906;10.908;2022-09-16T05:37:11;14.10;99.90
1994;DHT22;998;49.906;10.908;2022-09-16T05:47:12;14.10;99.90
1994;DHT22;998;49.906;10.908;2022-09-16T06:26:47;14.10;99.90
1994;DHT22;998;49.906;10.908;2022-09-16T06:31:57;14.10;99.90
1994;DHT22;998;49.906;10.908;2022-09-16T06:33:44;14.00;99.90
1994;DHT22;998;49.906;10.908;2022-09-16T06:41:10;14.10;99.90
1994;DHT22;998;49.906;10.908;2022-09-16T07:51:34;14.30;99.90
1994;DHT22;998;49.906;10.908;2022-09-16T07:54:02;14.40;99.90
1994;DHT22;998;49.906;10.908;2022-09-16T07:56:31;14.40;99.90
1994;DHT22;998;49.906;10.908;2022-09-16T07:58:59;14.40;99.90
1994;DHT22;998;49.906;10.908;2022-09-16T08:01:27;14.50;99.90
1994;DHT22;998;49.906;10.908;2022-09-16T08:03:58;14.50;99.90
1994;DHT22;998;49.906;10.908;2022-09-16T08:06:28;14.50;99.90
1994;DHT22;998;49.906;10.908;2022-09-16T08:08:58;14.50;99.90
1994;DHT22;998;49.906;10.908;2022-09-16T08:11:26;14.50;99.90
1994;DHT22;998;49.906;10.908;2022-09-16T08:13:52;14.40;99.90
1994;DHT22;998;49.906;10.908;2022-09-16T08:16:21;14.30;99.90
1994;DHT22;998;49.906;10.908;2022-09-16T08:18:49;14.40;99.90
1994;DHT22;998;49.906;10.908;2022-09-16T08:21:21;14.50;99.90
1994;DHT22;998;49.906;10.908;2022-09-16T08:23:49;14.50;99.90
1994;DHT22;998;49.906;10.908;2022-09-16T08:26:20;14.60;99.90
1994;DHT22;998;49.906;10.908;2022-09-16T08:28:48;14.60;99.90
1994;DHT22;998;49.906;10.908;2022-09-16T08:31:16;14.70;99.90
1994;DHT22;998;49.906;10.908;2022-09-16T08:33:43;14.70;99.90
1994;DHT22;998;49.906;10.908;2022-09-16T08:36:12;14.70;99.90
1994;DHT22;998;49.906;10.908;2022-09-16T08:38:42;14.70;99.90
1994;DHT22;998;49.906;10.908;2022-09-16T08:41:50;14.70;99.90
1994;DHT22;998;49.906;10.908;2022-09-16T08:44:31;14.70;99.90
1994;DHT22;998;49.906;10.908;2022-09-16T08:47:01;14.70;99.90
1994;DHT22;998;49.906;10.908;2022-09-16T08:49:34;14.80;99.90
1994;DHT22;998;49.906;10.908;2022-09-16T08:52:09;14.90;99.90
1994;DHT22;998;49.906;10.908;2022-09-16T08:54:40;14.90;99.90
1994;DHT22;998;49.906;10.908;2022-09-16T08:57:14;14.80;99.90
1994;DHT22;998;49.906;10.908;2022-09-16T08:59:45;14.80;99.90
1994;DHT22;998;49.906;10.908;2022-09-16T09:02:37;14.90;99.90
1994;DHT22;998;49.906;10.908;2022-09-16T09:05:14;15.00;99.90
1994;DHT22;998;49.906;10.908;2022-09-16T09:07:53;14.90;99.90
1994;DHT22;998;49.906;10.908;2022-09-16T09:10:26;14.90;99.90
1994;DHT22;998;49.906;10.908;2022-09-16T09:13:00;14.90;99.90
1994;DHT22;998;49.906;10.908;2022-09-16T09:15:36;14.90;99.90
1994;DHT22;998;49.906;10.908;2022-09-16T09:18:16;14.90;99.90
1994;DHT22;998;49.906;10.908;2022-09-16T09:20:58;14.90;99.90
1994;DHT22;998;49.906;10.908;2022-09-16T09:23:43;15.00;99.90
1994;DHT22;998;49.906;10.908;2022-09-16T09:26:18;14.90;99.90
1994;DHT22;998;49.906;10.908;2022-09-16T09:29:00;14.90;99.90
1994;DHT22;998;49.906;10.908;2022-09-16T09:31:35;14.90;99.90
1994;DHT22;998;49.906;10.908;2022-09-16T09:34:15;15.10;99.90
1994;DHT22;998;49.906;10.908;2022-09-16T09:36:58;15.10;99.90
1994;DHT22;998;49.906;10.908;2022-09-16T09:39:40;15.20;99.90
1994;DHT22;998;49.906;10.908;2022-09-16T09:42:14;15.10;99.90
1994;DHT22;998;49.906;10.908;2022-09-16T09:44:51;15.10;99.90
1994;DHT22;998;49.906;10.908;2022-09-16T09:47:25;15.20;99.90
1994;DHT22;998;49.906;10.908;2022-09-16T09:49:56;15.30;99.90
1994;DHT22;998;49.906;10.908;2022-09-16T09:52:29;15.30;99.90
1994;DHT22;998;49.906;10.908;2022-09-16T09:55:12;15.30;99.90
1994;DHT22;998;49.906;10.908;2022-09-16T09:57:43;15.30;99.90
1994;DHT22;998;49.906;10.908;2022-09-16T10:00:17;15.40;99.90
1994;DHT22;998;49.906;10.908;2022-09-16T10:02:46;15.40;99.90
1994;DHT22;998;49.906;10.908;2022-09-16T10:05:20;15.40;99.90
1994;DHT22;998;49.906;10.908;2022-09-16T10:07:49;15.40;99.90
1994;DHT22;998;49.906;10.908;2022-09-16T10:10:21;15.40;99.90
1994;DHT22;998;49.906;10.908;2022-09-16T10:12:49;15.40;99.90
1994;DHT22;998;49.906;10.908;2022-09-16T10:15:22;15.40;99.90
1994;DHT22;998;49.906;10.908;2022-09-16T10:17:51;15.40;99.90
1994;DHT22;998;49.906;10.908;2022-09-16T10:20:25;15.40;99.90
1994;DHT22;998;49.906;10.908;2022-09-16T10:22:57;15.40;99.90
1994;DHT22;998;49.906;10.908;2022-09-16T10:25:24;15.30;99.90
1994;DHT22;998;49.906;10.908;2022-09-16T10:27:55;15.30;99.90
1994;DHT22;998;49.906;10.908;2022-09-16T10:30:26;15.30;99.90
1994;DHT22;998;49.906;10.908;2022-09-16T10:32:56;15.30;99.90
1994;DHT22;998;49.906;10.908;2022-09-16T10:35:26;15.30;99.90
1994;DHT22;998;49.906;10.908;2022-09-16T10:37:55;15.30;99.90
1994;DHT22;998;49.906;10.908;2022-09-16T10:40:23;15.30;99.90
1994;DHT22;998;49.906;10.908;2022-09-16T10:42:51;15.30;99.90
1994;DHT22;998;49.906;10.908;2022-09-16T10:45:24;15.30;99.90
1994;DHT22;998;49.906;10.908;2022-09-16T10:47:54;15.30;99.90
1994;DHT22;998;49.906;10.908;2022-09-16T10:50:22;15.30;99.90
1994;DHT22;998;49.906;10.908;2022-09-16T10:52:50;15.30;99.90
1994;DHT22;998;49.906;10.908;2022-09-16T10:55:23;15.40;99.90
1994;DHT22;998;49.906;10.908;2022-09-16T10:57:50;15.50;99.90
1994;DHT22;998;49.906;10.908;2022-09-16T11:00:19;15.60;99.90
1994;DHT22;998;49.906;10.908;2022-09-16T11:05:47;15.60;99.90
1994;DHT22;998;49.906;10.908;2022-09-16T11:08:29;15.60;99.90
1994;DHT22;998;49.906;10.908;2022-09-16T11:11:04;15.70;99.90
1994;DHT22;998;49.906;10.908;2022-09-16T11:13:40;16.00;99.90
1994;DHT22;998;49.906;10.908;2022-09-16T11:16:19;16.50;99.90
1994;DHT22;998;49.906;10.908;2022-09-16T11:18:55;17.30;99.90
1994;DHT22;998;49.906;10.908;2022-09-16T11:21:46;17.90;99.90
1994;DHT22;998;49.906;10.908;2022-09-16T11:24:25;18.60;99.90
1994;DHT22;998;49.906;10.908;2022-09-16T11:27:03;19.30;99.90
1994;DHT22;998;49.906;10.908;2022-09-16T11:29:43;19.70;99.90
1994;DHT22;998;49.906;10.908;2022-09-16T11:32:19;20.50;99.90
1994;DHT22;998;49.906;10.908;2022-09-16T11:35:00;20.90;99.90
1994;DHT22;998;49.906;10.908;2022-09-16T11:37:37;21.30;99.90
1994;DHT22;998;49.906;10.908;2022-09-16T11:40:14;21.40;99.90
1994;DHT22;998;49.906;10.908;2022-09-16T11:42:50;22.00;99.90
1994;DHT22;998;49.906;10.908;2022-09-16T11:45:34;22.00;99.50
1994;DHT22;998;49.906;10.908;2022-09-16T11:48:21;22.60;98.40
1994;DHT22;998;49.906;10.908;2022-09-16T11:50:57;22.10;97.80
1994;DHT22;998;49.906;10.908;2022-09-16T11:53:46;21.60;99.50
1994;DHT22;998;49.906;10.908;2022-09-16T11:56:20;20.80;99.90
1994;DHT22;998;49.906;10.908;2022-09-16T11:58:54;20.10;99.90
1994;DHT22;998;49.906;10.908;2022-09-16T12:01:28;20.20;99.90
1994;DHT22;998;49.906;10.908;2022-09-16T12:03:59;19.80;99.90
1994;DHT22;998;49.906;10.908;2022-09-16T12:06:33;19.40;99.90
1994;DHT22;998;49.906;10.908;2022-09-16T12:09:05;18.70;99.90
1994;DHT22;998;49.906;10.908;2022-09-16T12:11:36;19.60;99.90
1994;DHT22;998;49.906;10.908;2022-09-16T12:14:09;20.60;99.90
1994;DHT22;998;49.906;10.908;2022-09-16T12:16:42;21.40;99.90
1994;DHT22;998;49.906;10.908;2022-09-16T12:19:16;21.00;99.50
1994;DHT22;998;49.906;10.908;2022-09-16T12:21:48;20.00;99.90
1994;DHT22;998;49.906;10.908;2022-09-16T12:24:21;19.40;99.90
1994;DHT22;998;49.906;10.908;2022-09-16T12:26:54;18.90;99.90
1994;DHT22;998;49.906;10.908;2022-09-16T12:29:28;18.50;99.90
1994;DHT22;998;49.906;10.908;2022-09-16T12:32:02;18.20;99.90
1994;DHT22;998;49.906;10.908;2022-09-16T12:34:33;18.40;99.90
1994;DHT22;998;49.906;10.908;2022-09-16T12:37:07;19.00;99.90
1994;DHT22;998;49.906;10.908;2022-09-16T12:39:37;19.90;99.60
1994;DHT22;998;49.906;10.908;2022-09-16T12:42:25;20.60;98.10
1994;DHT22;998;49.906;10.908;2022-09-16T12:45:18;21.00;97.70
1994;DHT22;998;49.906;10.908;2022-09-16T12:48:09;21.50;98.60
1994;DHT22;998;49.906;10.908;2022-09-16T12:50:56;21.90;95.90
1994;DHT22;998;49.906;10.908;2022-09-16T12:53:47;21.10;95.30
1994;DHT22;998;49.906;10.908;2022-09-16T12:56:32;21.40;95.90
1994;DHT22;998;49.906;10.908;2022-09-16T12:59:30;21.20;96.80
1994;DHT22;998;49.906;10.908;2022-09-16T13:02:05;20.20;99.30
1994;DHT22;998;49.906;10.908;2022-09-16T13:04:50;19.20;99.90
1994;DHT22;998;49.906;10.908;2022-09-16T13:07:30;18.60;99.90
1994;DHT22;998;49.906;10.908;2022-09-16T13:10:19;18.20;99.90
1994;DHT22;998;49.906;10.908;2022-09-16T13:13:19;18.10;99.90
1994;DHT22;998;49.906;10.908;2022-09-16T13:16:00;18.20;99.90
1994;DHT22;998;49.906;10.908;2022-09-16T13:18:48;18.00;99.90
1994;DHT22;998;49.906;10.908;2022-09-16T13:21:23;18.30;99.90
1994;DHT22;998;49.906;10.908;2022-09-16T13:24:10;19.10;99.90
1994;DHT22;998;49.906;10.908;2022-09-16T13:26:47;19.70;99.90
1994;DHT22;998;49.906;10.908;2022-09-16T13:29:42;20.30;99.90
1994;DHT22;998;49.906;10.908;2022-09-16T13:32:28;20.60;99.90
1994;DHT22;998;49.906;10.908;2022-09-16T13:35:41;20.70;99.90
1994;DHT22;998;49.906;10.908;2022-09-16T13:38:33;21.10;99.90
1994;DHT22;998;49.906;10.908;2022-09-16T13:41:32;21.00;99.90
1994;DHT22;998;49.906;10.908;2022-09-16T14:41:59;18.90;99.90
1994;DHT22;998;49.906;10.908;2022-09-16T14:46:20;18.90;99.90
1994;DHT22;998;49.906;10.908;2022-09-16T15:00:15;18.00;99.90
1994;DHT22;998;49.906;10.908;2022-09-16T15:02:50;17.90;99.90
1994;DHT22;998;49.906;10.908;2022-09-16T15:05:53;17.80;99.90
1994;DHT22;998;49.906;10.908;2022-09-16T15:08:33;17.40;99.90
1994;DHT22;998;49.906;10.908;2022-09-16T15:11:34;18.10;99.90
1994;DHT22;998;49.906;10.908;2022-09-16T15:14:35;17.30;99.90
1994;DHT22;998;49.906;10.908;2022-09-16T15:17:40;17.60;99.90
1994;DHT22;998;49.906;10.908;2022-09-16T15:23:06;17.50;99.90
1994;DHT22;998;49.906;10.908;2022-09-16T15:25:58;17.50;99.90
1994;DHT22;998;49.906;10.908;2022-09-16T15:29:12;17.60;99.90
1994;DHT22;998;49.906;10.908;2022-09-16T15:31:46;17.90;99.90
1994;DHT22;998;49.906;10.908;2022-09-16T15:34:20;18.10;99.90
1994;DHT22;998;49.906;10.908;2022-09-16T15:36:52;18.10;99.90
1994;DHT22;998;49.906;10.908;2022-09-16T15:39:25;18.20;99.90
1994;DHT22;998;49.906;10.908;2022-09-16T15:42:09;18.20;99.90
1994;DHT22;998;49.906;10.908;2022-09-16T15:51:43;18.10;99.90
1994;DHT22;998;49.906;10.908;2022-09-16T15:55:08;18.40;99.90
1994;DHT22;998;49.906;10.908;2022-09-16T15:58:33;18.30;99.90
1994;DHT22;998;49.906;10.908;2022-09-16T18:32:35;15.40;99.90
1994;DHT22;998;49.906;10.908;2022-09-16T20:09:23;13.70;99.90
1994;DHT22;998;49.906;10.908;2022-09-16T20:12:04;13.60;99.90
1994;DHT22;998;49.906;10.908;2022-09-16T20:15:30;13.60;99.90
1994;DHT22;998;49.906;10.908;2022-09-16T20:36:50;13.30;99.90
1994;DHT22;998;49.906;10.908;2022-09-16T20:39:41;13.10;99.90
1994;DHT22;998;49.906;10.908;2022-09-16T21:23:23;12.60;99.90
1994;DHT22;998;49.906;10.908;2022-09-16T21:27:37;12.50;99.90
1994;DHT22;998;49.906;10.908;2022-09-16T21:33:21;12.60;99.90
1994;DHT22;998;49.906;10.908;2022-09-16T22:00:32;12.20;99.90
1994;DHT22;998;49.906;10.908;2022-09-16T22:07:00;12.10;99.90
1994;DHT22;998;49.906;10.908;2022-09-16T22:15:33;12.00;99.90
1994;DHT22;998;49.906;10.908;2022-09-16T22:48:50;11.70;99.90
1994;DHT22;998;49.906;10.908;2022-09-16T22:52:10;11.80;99.90
1994;DHT22;998;49.906;10.908;2022-09-16T23:01:37;11.90;99.90
1994;DHT22;998;49.906;10.908;2022-09-16T23:04:38;11.70;99.90
1994;DHT22;998;49.906;10.908;2022-09-16T23:07:36;11.70;99.90
1994;DHT22;998;49.906;10.908;2022-09-16T23:10:37;11.70;99.90
1994;DHT22;998;49.906;10.908;2022-09-16T23:16:14;11.90;99.90
1994;DHT22;998;49.906;10.908;2022-09-16T23:26:13;11.70;99.90
1994;DHT22;998;49.906;10.908;2022-09-16T23:29:19;11.60;99.90
1994;DHT22;998;49.906;10.908;2022-09-16T23:32:14;11.70;99.90
1994;DHT22;998;49.906;10.908;2022-09-16T23:35:42;11.60;99.90
1994;DHT22;998;49.906;10.908;2022-09-16T23:38:51;11.50;99.90
1994;DHT22;998;49.906;10.908;2022-09-16T23:42:03;11.60;99.90
1994;DHT22;998;49.906;10.908;2022-09-16T23:45:12;11.50;99.90
1994;DHT22;998;49.906;10.908;2022-09-16T23:48:04;11.40;99.90
1994;DHT22;998;49.906;10.908;2022-09-16T23:51:01;11.50;99.90
1994;DHT22;998;49.906;10.908;2022-09-16T23:57:41;11.40;99.90
